sensor_id;sensor_type;location;lat;lon;timestamp;pressure;altitude;pressure_sealevel;temperature;humidity
48810;BME280;40070;47.322;18.784;2024-03-08T00:00:11;1006.27;;;7.00;80.27
48810;BME280;40070;47.322;18.784;2024-03-08T00:02:14;1006.31;;;6.94;80.38
48810;BME280;40070;47.322;18.784;2024-03-08T00:04:16;1006.24;;;7.10;80.11
48810;BME280;40070;47.322;18.784;2024-03-08T00:06:19;1006.28;;;7.05;80.40
48810;BME280;40070;47.322;18.784;2024-03-08T00:08:21;1006.30;;;6.90;80.46
48810;BME280;40070;47.322;18.784;2024-03-08T00:10:24;1006.26;;;6.88;81.18
48810;BME280;40070;47.322;18.784;2024-03-08T00:12:26;1006.31;;;6.85;81.21
48810;BME280;40070;47.322;18.784;2024-03-08T00:14:29;1006.32;;;6.70;81.69
48810;BME280;40070;47.322;18.784;2024-03-08T00:16:32;1006.26;;;6.93;80.95
48810;BME280;40070;47.322;18.784;2024-03-08T00:18:34;1006.35;;;6.97;81.17
48810;BME280;40070;47.322;18.784;2024-03-08T00:20:37;1006.32;;;6.98;81.10
48810;BME280;40070;47.322;18.784;2024-03-08T00:22:39;1006.36;;;6.85;80.46
48810;BME280;40070;47.322;18.784;2024-03-08T00:24:42;1006.38;;;6.71;81.22
48810;BME280;40070;47.322;18.784;2024-03-08T00:26:45;1006.40;;;6.81;81.36
48810;BME280;40070;47.322;18.784;2024-03-08T00:28:48;1006.31;;;7.01;80.98
48810;BME280;40070;47.322;18.784;2024-03-08T00:30:50;1006.29;;;7.13;80.39
48810;BME280;40070;47.322;18.784;2024-03-08T00:32:53;1006.31;;;7.21;79.88
48810;BME280;40070;47.322;18.784;2024-03-08T00:34:55;1006.29;;;7.21;79.72
48810;BME280;40070;47.322;18.784;2024-03-08T00:36:58;1006.26;;;7.06;80.25
48810;BME280;40070;47.322;18.784;2024-03-08T00:39:00;1006.27;;;6.97;81.02
48810;BME280;40070;47.322;18.784;2024-03-08T00:41:03;1006.23;;;7.01;81.42
48810;BME280;40070;47.322;18.784;2024-03-08T00:43:05;1006.22;;;7.06;80.68
48810;BME280;40070;47.322;18.784;2024-03-08T00:45:08;1006.23;;;7.08;80.49
48810;BME280;40070;47.322;18.784;2024-03-08T00:47:11;1006.25;;;7.14;80.54
48810;BME280;40070;47.322;18.784;2024-03-08T00:49:13;1006.18;;;7.10;80.27
48810;BME280;40070;47.322;18.784;2024-03-08T00:51:16;1006.21;;;7.07;80.77
48810;BME280;40070;47.322;18.784;2024-03-08T00:53:18;1006.18;;;6.95;80.70
48810;BME280;40070;47.322;18.784;2024-03-08T00:55:21;1006.16;;;6.98;81.10
48810;BME280;40070;47.322;18.784;2024-03-08T00:57:23;1006.22;;;6.68;81.70
48810;BME280;40070;47.322;18.784;2024-03-08T00:59:26;1006.17;;;6.79;81.37
48810;BME280;40070;47.322;18.784;2024-03-08T01:01:28;1006.07;;;6.78;81.62
48810;BME280;40070;47.322;18.784;2024-03-08T01:03:31;1006.10;;;6.81;81.38
48810;BME280;40070;47.322;18.784;2024-03-08T01:05:33;1006.09;;;6.86;81.61
48810;BME280;40070;47.322;18.784;2024-03-08T01:07:36;1006.06;;;6.84;81.57
48810;BME280;40070;47.322;18.784;2024-03-08T01:09:38;1006.05;;;6.84;81.52
48810;BME280;40070;47.322;18.784;2024-03-08T01:11:41;1006.07;;;7.00;81.05
48810;BME280;40070;47.322;18.784;2024-03-08T01:13:43;1006.07;;;7.07;80.98
48810;BME280;40070;47.322;18.784;2024-03-08T01:15:46;1006.03;;;7.02;80.84
48810;BME280;40070;47.322;18.784;2024-03-08T01:17:48;1006.03;;;7.10;80.40
48810;BME280;40070;47.322;18.784;2024-03-08T01:19:51;1006.05;;;7.01;80.57
48810;BME280;40070;47.322;18.784;2024-03-08T01:21:53;1006.07;;;6.86;81.08
48810;BME280;40070;47.322;18.784;2024-03-08T01:23:56;1006.09;;;7.01;80.90
48810;BME280;40070;47.322;18.784;2024-03-08T01:25:58;1006.06;;;7.09;81.09
48810;BME280;40070;47.322;18.784;2024-03-08T01:28:01;1006.09;;;6.85;81.63
48810;BME280;40070;47.322;18.784;2024-03-08T01:30:04;1006.07;;;6.76;81.85
48810;BME280;40070;47.322;18.784;2024-03-08T01:32:06;1006.05;;;6.77;81.97
48810;BME280;40070;47.322;18.784;2024-03-08T01:34:09;1006.05;;;6.77;82.42
48810;BME280;40070;47.322;18.784;2024-03-08T01:36:12;1006.05;;;6.82;82.50
48810;BME280;40070;47.322;18.784;2024-03-08T01:38:14;1006.03;;;7.04;81.60
48810;BME280;40070;47.322;18.784;2024-03-08T01:40:17;1005.99;;;7.21;80.83
48810;BME280;40070;47.322;18.784;2024-03-08T01:42:19;1006.05;;;7.16;81.09
48810;BME280;40070;47.322;18.784;2024-03-08T01:44:22;1006.06;;;7.00;81.15
48810;BME280;40070;47.322;18.784;2024-03-08T01:46:24;1005.99;;;6.97;81.62
48810;BME280;40070;47.322;18.784;2024-03-08T01:48:27;1005.95;;;6.87;81.71
48810;BME280;40070;47.322;18.784;2024-03-08T01:50:30;1005.91;;;7.12;81.33
48810;BME280;40070;47.322;18.784;2024-03-08T01:52:33;1005.93;;;7.08;80.38
48810;BME280;40070;47.322;18.784;2024-03-08T01:54:36;1005.97;;;6.93;81.06
48810;BME280;40070;47.322;18.784;2024-03-08T01:56:38;1005.96;;;6.70;82.50
48810;BME280;40070;47.322;18.784;2024-03-08T01:58:41;1005.95;;;6.89;82.48
48810;BME280;40070;47.322;18.784;2024-03-08T02:00:44;1005.92;;;7.08;82.04
48810;BME280;40070;47.322;18.784;2024-03-08T02:02:48;1005.91;;;6.98;81.99
48810;BME280;40070;47.322;18.784;2024-03-08T02:04:51;1005.95;;;6.95;82.44
48810;BME280;40070;47.322;18.784;2024-03-08T02:06:54;1005.91;;;6.95;82.54
48810;BME280;40070;47.322;18.784;2024-03-08T02:08:56;1005.92;;;6.98;82.44
48810;BME280;40070;47.322;18.784;2024-03-08T02:10:59;1005.90;;;7.04;82.02
48810;BME280;40070;47.322;18.784;2024-03-08T02:13:01;1005.91;;;6.85;82.64
48810;BME280;40070;47.322;18.784;2024-03-08T02:15:04;1005.90;;;6.98;81.93
48810;BME280;40070;47.322;18.784;2024-03-08T02:17:07;1005.94;;;6.97;81.75
48810;BME280;40070;47.322;18.784;2024-03-08T02:19:09;1005.94;;;7.03;82.12
48810;BME280;40070;47.322;18.784;2024-03-08T02:21:12;1005.91;;;7.24;81.42
48810;BME280;40070;47.322;18.784;2024-03-08T02:23:15;1005.90;;;7.33;80.38
48810;BME280;40070;47.322;18.784;2024-03-08T02:25:17;1005.92;;;7.47;79.99
48810;BME280;40070;47.322;18.784;2024-03-08T02:27:24;1005.90;;;7.39;80.33
48810;BME280;40070;47.322;18.784;2024-03-08T02:29:26;1005.91;;;7.52;80.17
48810;BME280;40070;47.322;18.784;2024-03-08T02:31:29;1005.94;;;7.56;79.78
48810;BME280;40070;47.322;18.784;2024-03-08T02:33:31;1005.94;;;7.61;79.57
48810;BME280;40070;47.322;18.784;2024-03-08T02:35:34;1005.96;;;7.56;79.54
48810;BME280;40070;47.322;18.784;2024-03-08T02:37:36;1005.94;;;7.59;79.50
48810;BME280;40070;47.322;18.784;2024-03-08T02:39:39;1005.98;;;7.69;79.36
48810;BME280;40070;47.322;18.784;2024-03-08T02:41:41;1006.02;;;7.65;79.67
48810;BME280;40070;47.322;18.784;2024-03-08T02:43:43;1005.96;;;7.59;79.71
48810;BME280;40070;47.322;18.784;2024-03-08T02:45:46;1005.94;;;7.60;79.54
48810;BME280;40070;47.322;18.784;2024-03-08T02:47:49;1005.91;;;7.53;79.86
48810;BME280;40070;47.322;18.784;2024-03-08T02:49:51;1005.86;;;7.28;80.90
48810;BME280;40070;47.322;18.784;2024-03-08T02:51:53;1005.88;;;7.34;80.82
48810;BME280;40070;47.322;18.784;2024-03-08T02:53:56;1005.87;;;7.36;80.62
48810;BME280;40070;47.322;18.784;2024-03-08T02:55:58;1005.88;;;7.33;80.82
48810;BME280;40070;47.322;18.784;2024-03-08T02:58:04;1005.88;;;7.37;79.95
48810;BME280;40070;47.322;18.784;2024-03-08T03:00:07;1005.89;;;7.20;80.37
48810;BME280;40070;47.322;18.784;2024-03-08T03:02:10;1005.91;;;7.44;79.72
48810;BME280;40070;47.322;18.784;2024-03-08T03:04:12;1005.93;;;7.38;80.19
48810;BME280;40070;47.322;18.784;2024-03-08T03:06:15;1005.95;;;7.38;79.86
48810;BME280;40070;47.322;18.784;2024-03-08T03:08:17;1005.96;;;7.48;79.70
48810;BME280;40070;47.322;18.784;2024-03-08T03:10:20;1006.00;;;7.67;79.04
48810;BME280;40070;47.322;18.784;2024-03-08T03:12:22;1006.01;;;7.66;78.37
48810;BME280;40070;47.322;18.784;2024-03-08T03:14:25;1006.00;;;7.46;78.96
48810;BME280;40070;47.322;18.784;2024-03-08T03:16:27;1006.07;;;7.54;79.29
48810;BME280;40070;47.322;18.784;2024-03-08T03:18:30;1006.07;;;7.64;78.75
48810;BME280;40070;47.322;18.784;2024-03-08T03:20:32;1006.10;;;7.72;78.16
48810;BME280;40070;47.322;18.784;2024-03-08T03:22:35;1006.05;;;7.61;78.56
48810;BME280;40070;47.322;18.784;2024-03-08T03:24:38;1006.09;;;7.67;78.48
48810;BME280;40070;47.322;18.784;2024-03-08T03:26:41;1006.06;;;7.77;77.98
48810;BME280;40070;47.322;18.784;2024-03-08T03:28:43;1006.04;;;7.74;77.79
48810;BME280;40070;47.322;18.784;2024-03-08T03:30:46;1006.06;;;7.73;77.64
48810;BME280;40070;47.322;18.784;2024-03-08T03:32:48;1006.06;;;7.81;77.48
48810;BME280;40070;47.322;18.784;2024-03-08T03:34:51;1006.06;;;7.72;78.13
48810;BME280;40070;47.322;18.784;2024-03-08T03:36:53;1006.09;;;7.73;78.06
48810;BME280;40070;47.322;18.784;2024-03-08T03:38:56;1006.07;;;7.73;78.10
48810;BME280;40070;47.322;18.784;2024-03-08T03:40:58;1006.09;;;7.73;77.80
48810;BME280;40070;47.322;18.784;2024-03-08T03:43:01;1006.10;;;7.73;77.46
48810;BME280;40070;47.322;18.784;2024-03-08T03:45:05;1006.09;;;7.76;78.04
48810;BME280;40070;47.322;18.784;2024-03-08T03:47:08;1006.08;;;7.85;77.76
48810;BME280;40070;47.322;18.784;2024-03-08T03:49:10;1006.06;;;7.80;77.43
48810;BME280;40070;47.322;18.784;2024-03-08T03:51:13;1006.11;;;7.89;77.12
48810;BME280;40070;47.322;18.784;2024-03-08T03:53:15;1006.06;;;7.91;77.09
48810;BME280;40070;47.322;18.784;2024-03-08T03:55:18;1006.08;;;7.89;77.27
48810;BME280;40070;47.322;18.784;2024-03-08T03:57:20;1006.06;;;7.91;77.06
48810;BME280;40070;47.322;18.784;2024-03-08T03:59:22;1006.04;;;7.55;77.88
48810;BME280;40070;47.322;18.784;2024-03-08T04:01:25;1006.06;;;7.63;77.31
48810;BME280;40070;47.322;18.784;2024-03-08T04:03:27;1006.07;;;7.47;78.00
48810;BME280;40070;47.322;18.784;2024-03-08T04:05:30;1006.09;;;7.39;77.46
48810;BME280;40070;47.322;18.784;2024-03-08T04:07:32;1006.09;;;7.31;77.57
48810;BME280;40070;47.322;18.784;2024-03-08T04:09:35;1006.08;;;7.35;78.03
48810;BME280;40070;47.322;18.784;2024-03-08T04:11:38;1006.12;;;7.16;78.37
48810;BME280;40070;47.322;18.784;2024-03-08T04:13:40;1006.10;;;7.27;78.08
48810;BME280;40070;47.322;18.784;2024-03-08T04:15:43;1006.13;;;7.29;78.33
48810;BME280;40070;47.322;18.784;2024-03-08T04:17:45;1006.16;;;7.46;77.44
48810;BME280;40070;47.322;18.784;2024-03-08T04:19:48;1006.12;;;7.34;77.29
48810;BME280;40070;47.322;18.784;2024-03-08T04:21:50;1006.11;;;7.23;77.23
48810;BME280;40070;47.322;18.784;2024-03-08T04:23:53;1006.15;;;7.21;77.70
48810;BME280;40070;47.322;18.784;2024-03-08T04:25:55;1006.17;;;6.90;78.36
48810;BME280;40070;47.322;18.784;2024-03-08T04:27:58;1006.19;;;6.95;78.64
48810;BME280;40070;47.322;18.784;2024-03-08T04:30:00;1006.21;;;7.03;78.76
48810;BME280;40070;47.322;18.784;2024-03-08T04:32:03;1006.23;;;7.17;77.81
48810;BME280;40070;47.322;18.784;2024-03-08T04:34:06;1006.21;;;7.00;78.18
48810;BME280;40070;47.322;18.784;2024-03-08T04:36:09;1006.19;;;7.02;78.38
48810;BME280;40070;47.322;18.784;2024-03-08T04:38:11;1006.21;;;7.02;78.51
48810;BME280;40070;47.322;18.784;2024-03-08T04:40:14;1006.17;;;7.22;77.66
48810;BME280;40070;47.322;18.784;2024-03-08T04:42:16;1006.13;;;7.21;77.59
48810;BME280;40070;47.322;18.784;2024-03-08T04:44:19;1006.18;;;7.17;77.83
48810;BME280;40070;47.322;18.784;2024-03-08T04:46:21;1006.16;;;7.31;77.82
48810;BME280;40070;47.322;18.784;2024-03-08T04:48:24;1006.24;;;7.22;78.43
48810;BME280;40070;47.322;18.784;2024-03-08T04:50:26;1006.26;;;7.08;78.21
48810;BME280;40070;47.322;18.784;2024-03-08T04:52:29;1006.22;;;7.13;78.15
48810;BME280;40070;47.322;18.784;2024-03-08T04:54:31;1006.22;;;7.07;78.53
48810;BME280;40070;47.322;18.784;2024-03-08T04:56:34;1006.23;;;6.99;79.08
48810;BME280;40070;47.322;18.784;2024-03-08T04:58:36;1006.23;;;6.91;79.25
48810;BME280;40070;47.322;18.784;2024-03-08T05:00:38;1006.23;;;7.15;78.80
48810;BME280;40070;47.322;18.784;2024-03-08T05:02:41;1006.27;;;7.03;78.92
48810;BME280;40070;47.322;18.784;2024-03-08T05:04:43;1006.25;;;7.14;78.39
48810;BME280;40070;47.322;18.784;2024-03-08T05:06:46;1006.23;;;7.14;78.57
48810;BME280;40070;47.322;18.784;2024-03-08T05:08:48;1006.22;;;7.09;78.46
48810;BME280;40070;47.322;18.784;2024-03-08T05:10:51;1006.23;;;7.17;78.73
48810;BME280;40070;47.322;18.784;2024-03-08T05:12:53;1006.23;;;7.27;78.66
48810;BME280;40070;47.322;18.784;2024-03-08T05:14:56;1006.20;;;7.42;78.19
48810;BME280;40070;47.322;18.784;2024-03-08T05:16:58;1006.26;;;7.28;78.73
48810;BME280;40070;47.322;18.784;2024-03-08T05:19:01;1006.23;;;7.34;77.97
48810;BME280;40070;47.322;18.784;2024-03-08T05:21:04;1006.24;;;7.25;78.13
48810;BME280;40070;47.322;18.784;2024-03-08T05:23:06;1006.22;;;7.15;78.33
48810;BME280;40070;47.322;18.784;2024-03-08T05:25:09;1006.24;;;7.17;78.45
48810;BME280;40070;47.322;18.784;2024-03-08T05:27:11;1006.27;;;7.28;78.04
48810;BME280;40070;47.322;18.784;2024-03-08T05:29:14;1006.30;;;7.27;78.52
48810;BME280;40070;47.322;18.784;2024-03-08T05:31:20;1006.31;;;7.18;78.27
48810;BME280;40070;47.322;18.784;2024-03-08T05:33:22;1006.36;;;7.09;78.58
48810;BME280;40070;47.322;18.784;2024-03-08T05:35:25;1006.35;;;7.21;78.05
48810;BME280;40070;47.322;18.784;2024-03-08T05:37:27;1006.37;;;7.07;78.23
48810;BME280;40070;47.322;18.784;2024-03-08T05:39:30;1006.33;;;7.10;78.43
48810;BME280;40070;47.322;18.784;2024-03-08T05:41:32;1006.39;;;7.18;78.47
48810;BME280;40070;47.322;18.784;2024-03-08T05:43:35;1006.39;;;7.15;78.07
48810;BME280;40070;47.322;18.784;2024-03-08T05:45:37;1006.39;;;7.05;78.45
48810;BME280;40070;47.322;18.784;2024-03-08T05:47:40;1006.41;;;7.15;78.59
48810;BME280;40070;47.322;18.784;2024-03-08T05:49:42;1006.42;;;7.18;78.91
48810;BME280;40070;47.322;18.784;2024-03-08T05:51:45;1006.45;;;7.15;77.97
48810;BME280;40070;47.322;18.784;2024-03-08T05:53:47;1006.46;;;7.16;78.12
48810;BME280;40070;47.322;18.784;2024-03-08T05:55:50;1006.45;;;7.20;78.08
48810;BME280;40070;47.322;18.784;2024-03-08T05:57:52;1006.51;;;7.02;78.61
48810;BME280;40070;47.322;18.784;2024-03-08T05:59:55;1006.53;;;7.00;78.50
48810;BME280;40070;47.322;18.784;2024-03-08T06:01:57;1006.53;;;7.11;78.34
48810;BME280;40070;47.322;18.784;2024-03-08T06:04:00;1006.59;;;6.88;79.94
48810;BME280;40070;47.322;18.784;2024-03-08T06:06:02;1006.52;;;7.10;79.27
48810;BME280;40070;47.322;18.784;2024-03-08T06:08:05;1006.53;;;7.08;79.29
48810;BME280;40070;47.322;18.784;2024-03-08T06:10:08;1006.55;;;7.20;78.87
48810;BME280;40070;47.322;18.784;2024-03-08T06:12:11;1006.57;;;7.01;78.73
48810;BME280;40070;47.322;18.784;2024-03-08T06:14:13;1006.55;;;7.09;78.54
48810;BME280;40070;47.322;18.784;2024-03-08T06:16:16;1006.64;;;6.94;78.71
48810;BME280;40070;47.322;18.784;2024-03-08T06:18:18;1006.62;;;6.84;79.16
48810;BME280;40070;47.322;18.784;2024-03-08T06:20:21;1006.65;;;6.98;78.83
48810;BME280;40070;47.322;18.784;2024-03-08T06:22:23;1006.69;;;6.92;79.47
48810;BME280;40070;47.322;18.784;2024-03-08T06:24:26;1006.66;;;7.05;79.23
48810;BME280;40070;47.322;18.784;2024-03-08T06:26:28;1006.70;;;7.01;78.99
48810;BME280;40070;47.322;18.784;2024-03-08T06:28:31;1006.70;;;7.07;78.90
48810;BME280;40070;47.322;18.784;2024-03-08T06:30:33;1006.69;;;7.06;78.76
48810;BME280;40070;47.322;18.784;2024-03-08T06:32:36;1006.66;;;7.25;78.48
48810;BME280;40070;47.322;18.784;2024-03-08T06:34:39;1006.68;;;7.27;78.25
48810;BME280;40070;47.322;18.784;2024-03-08T06:36:41;1006.71;;;7.23;78.52
48810;BME280;40070;47.322;18.784;2024-03-08T06:38:47;1006.75;;;7.10;79.36
48810;BME280;40070;47.322;18.784;2024-03-08T06:40:49;1006.74;;;7.19;79.22
48810;BME280;40070;47.322;18.784;2024-03-08T06:42:52;1006.80;;;7.06;79.27
48810;BME280;40070;47.322;18.784;2024-03-08T06:44:54;1006.74;;;7.27;79.11
48810;BME280;40070;47.322;18.784;2024-03-08T06:46:57;1006.73;;;7.40;79.26
48810;BME280;40070;47.322;18.784;2024-03-08T06:48:59;1006.74;;;7.35;79.17
48810;BME280;40070;47.322;18.784;2024-03-08T06:51:03;1006.83;;;7.19;79.25
48810;BME280;40070;47.322;18.784;2024-03-08T06:53:05;1006.87;;;7.02;80.01
48810;BME280;40070;47.322;18.784;2024-03-08T06:55:08;1006.90;;;6.99;79.96
48810;BME280;40070;47.322;18.784;2024-03-08T06:57:11;1006.83;;;7.25;79.53
48810;BME280;40070;47.322;18.784;2024-03-08T06:59:13;1006.85;;;7.39;79.39
48810;BME280;40070;47.322;18.784;2024-03-08T07:01:16;1006.81;;;7.33;79.60
48810;BME280;40070;47.322;18.784;2024-03-08T07:03:19;1006.83;;;7.30;80.04
48810;BME280;40070;47.322;18.784;2024-03-08T07:05:21;1006.84;;;7.38;79.89
48810;BME280;40070;47.322;18.784;2024-03-08T07:07:24;1006.83;;;7.21;80.73
48810;BME280;40070;47.322;18.784;2024-03-08T07:09:26;1006.81;;;7.34;80.00
48810;BME280;40070;47.322;18.784;2024-03-08T07:11:28;1006.82;;;7.43;79.63
48810;BME280;40070;47.322;18.784;2024-03-08T07:13:31;1006.86;;;7.46;79.29
48810;BME280;40070;47.322;18.784;2024-03-08T07:15:33;1006.84;;;7.56;78.64
48810;BME280;40070;47.322;18.784;2024-03-08T07:17:36;1006.86;;;7.54;78.65
48810;BME280;40070;47.322;18.784;2024-03-08T07:19:38;1006.81;;;7.73;78.53
48810;BME280;40070;47.322;18.784;2024-03-08T07:21:41;1006.82;;;7.74;78.01
48810;BME280;40070;47.322;18.784;2024-03-08T07:23:43;1006.86;;;7.58;78.48
48810;BME280;40070;47.322;18.784;2024-03-08T07:25:46;1006.86;;;7.35;79.94
48810;BME280;40070;47.322;18.784;2024-03-08T07:27:51;1006.90;;;7.28;79.33
48810;BME280;40070;47.322;18.784;2024-03-08T07:29:53;1006.90;;;7.31;79.54
48810;BME280;40070;47.322;18.784;2024-03-08T07:31:56;1006.89;;;7.26;79.31
48810;BME280;40070;47.322;18.784;2024-03-08T07:33:58;1006.92;;;7.25;79.91
48810;BME280;40070;47.322;18.784;2024-03-08T07:36:01;1006.90;;;7.43;79.40
48810;BME280;40070;47.322;18.784;2024-03-08T07:38:04;1006.90;;;7.51;79.45
48810;BME280;40070;47.322;18.784;2024-03-08T07:40:07;1006.94;;;7.43;79.30
48810;BME280;40070;47.322;18.784;2024-03-08T07:42:09;1006.94;;;7.58;78.96
48810;BME280;40070;47.322;18.784;2024-03-08T07:44:12;1006.96;;;7.28;79.52
48810;BME280;40070;47.322;18.784;2024-03-08T07:46:14;1006.93;;;7.32;80.05
48810;BME280;40070;47.322;18.784;2024-03-08T07:48:17;1006.91;;;7.41;79.85
48810;BME280;40070;47.322;18.784;2024-03-08T07:50:19;1006.95;;;7.32;80.88
48810;BME280;40070;47.322;18.784;2024-03-08T07:52:22;1006.95;;;7.48;79.86
48810;BME280;40070;47.322;18.784;2024-03-08T07:54:24;1006.94;;;7.46;79.81
48810;BME280;40070;47.322;18.784;2024-03-08T07:56:27;1006.94;;;7.48;79.92
48810;BME280;40070;47.322;18.784;2024-03-08T07:58:29;1006.93;;;7.36;79.52
48810;BME280;40070;47.322;18.784;2024-03-08T08:00:32;1006.99;;;7.19;79.49
48810;BME280;40070;47.322;18.784;2024-03-08T08:02:34;1006.95;;;7.41;79.95
48810;BME280;40070;47.322;18.784;2024-03-08T08:04:37;1006.92;;;7.60;79.80
48810;BME280;40070;47.322;18.784;2024-03-08T08:06:39;1006.93;;;7.46;80.27
48810;BME280;40070;47.322;18.784;2024-03-08T08:08:42;1006.92;;;7.61;79.63
48810;BME280;40070;47.322;18.784;2024-03-08T08:10:45;1006.91;;;7.42;79.63
48810;BME280;40070;47.322;18.784;2024-03-08T08:12:48;1006.91;;;7.55;79.38
48810;BME280;40070;47.322;18.784;2024-03-08T08:14:50;1006.89;;;7.49;79.99
48810;BME280;40070;47.322;18.784;2024-03-08T08:16:53;1006.90;;;7.44;79.92
48810;BME280;40070;47.322;18.784;2024-03-08T08:18:55;1006.90;;;7.54;79.88
48810;BME280;40070;47.322;18.784;2024-03-08T08:20:57;1006.94;;;7.61;79.39
48810;BME280;40070;47.322;18.784;2024-03-08T08:23:00;1006.93;;;7.37;80.03
48810;BME280;40070;47.322;18.784;2024-03-08T08:25:03;1006.96;;;7.62;79.96
48810;BME280;40070;47.322;18.784;2024-03-08T08:27:05;1006.99;;;7.60;79.81
48810;BME280;40070;47.322;18.784;2024-03-08T08:29:08;1006.95;;;7.57;79.71
48810;BME280;40070;47.322;18.784;2024-03-08T08:31:10;1006.98;;;7.60;79.82
48810;BME280;40070;47.322;18.784;2024-03-08T08:33:13;1006.99;;;7.27;80.93
48810;BME280;40070;47.322;18.784;2024-03-08T08:35:15;1006.94;;;7.34;80.97
48810;BME280;40070;47.322;18.784;2024-03-08T08:37:18;1006.94;;;7.41;81.17
48810;BME280;40070;47.322;18.784;2024-03-08T08:39:20;1006.94;;;7.27;81.65
48810;BME280;40070;47.322;18.784;2024-03-08T08:41:23;1006.97;;;7.47;81.53
48810;BME280;40070;47.322;18.784;2024-03-08T08:43:25;1006.92;;;7.46;81.49
48810;BME280;40070;47.322;18.784;2024-03-08T08:45:28;1006.93;;;7.32;81.48
48810;BME280;40070;47.322;18.784;2024-03-08T08:47:30;1006.94;;;7.37;81.53
48810;BME280;40070;47.322;18.784;2024-03-08T08:49:33;1006.95;;;7.23;82.36
48810;BME280;40070;47.322;18.784;2024-03-08T08:51:35;1006.92;;;7.38;82.06
48810;BME280;40070;47.322;18.784;2024-03-08T08:53:38;1006.95;;;7.26;82.44
48810;BME280;40070;47.322;18.784;2024-03-08T08:55:41;1006.97;;;7.04;82.93
48810;BME280;40070;47.322;18.784;2024-03-08T08:57:43;1007.01;;;7.21;82.88
48810;BME280;40070;47.322;18.784;2024-03-08T08:59:46;1007.00;;;7.19;83.24
48810;BME280;40070;47.322;18.784;2024-03-08T09:01:48;1007.00;;;7.35;83.23
48810;BME280;40070;47.322;18.784;2024-03-08T09:03:51;1006.98;;;7.52;82.46
48810;BME280;40070;47.322;18.784;2024-03-08T09:05:53;1006.94;;;7.50;81.80
48810;BME280;40070;47.322;18.784;2024-03-08T09:07:56;1006.99;;;7.78;81.38
48810;BME280;40070;47.322;18.784;2024-03-08T09:09:59;1006.90;;;7.57;81.41
48810;BME280;40070;47.322;18.784;2024-03-08T09:12:01;1006.92;;;7.50;81.61
48810;BME280;40070;47.322;18.784;2024-03-08T09:14:04;1006.89;;;7.68;81.31
48810;BME280;40070;47.322;18.784;2024-03-08T09:16:06;1006.87;;;7.75;81.78
48810;BME280;40070;47.322;18.784;2024-03-08T09:18:09;1006.87;;;7.80;81.42
48810;BME280;40070;47.322;18.784;2024-03-08T09:20:12;1006.89;;;8.00;81.10
48810;BME280;40070;47.322;18.784;2024-03-08T09:22:14;1006.90;;;7.96;80.98
48810;BME280;40070;47.322;18.784;2024-03-08T09:24:17;1006.89;;;8.05;80.56
48810;BME280;40070;47.322;18.784;2024-03-08T09:26:19;1006.88;;;7.87;81.59
48810;BME280;40070;47.322;18.784;2024-03-08T09:28:22;1006.88;;;7.90;81.41
48810;BME280;40070;47.322;18.784;2024-03-08T09:30:24;1006.91;;;7.74;81.65
48810;BME280;40070;47.322;18.784;2024-03-08T09:32:27;1006.89;;;7.83;81.67
48810;BME280;40070;47.322;18.784;2024-03-08T09:34:29;1006.89;;;7.82;81.77
48810;BME280;40070;47.322;18.784;2024-03-08T09:36:32;1006.93;;;8.02;81.44
48810;BME280;40070;47.322;18.784;2024-03-08T09:38:34;1006.90;;;8.24;80.38
48810;BME280;40070;47.322;18.784;2024-03-08T09:40:37;1006.92;;;8.01;80.43
48810;BME280;40070;47.322;18.784;2024-03-08T09:42:39;1006.92;;;8.04;80.45
48810;BME280;40070;47.322;18.784;2024-03-08T09:44:44;1006.90;;;7.84;80.98
48810;BME280;40070;47.322;18.784;2024-03-08T09:46:47;1006.91;;;8.00;81.08
48810;BME280;40070;47.322;18.784;2024-03-08T09:48:50;1006.91;;;8.05;80.30
48810;BME280;40070;47.322;18.784;2024-03-08T09:50:52;1006.87;;;8.01;80.38
48810;BME280;40070;47.322;18.784;2024-03-08T09:52:55;1006.94;;;7.92;80.48
48810;BME280;40070;47.322;18.784;2024-03-08T09:54:57;1006.91;;;8.02;80.46
48810;BME280;40070;47.322;18.784;2024-03-08T09:57:00;1006.89;;;8.27;79.94
48810;BME280;40070;47.322;18.784;2024-03-08T09:59:03;1006.88;;;8.29;80.11
48810;BME280;40070;47.322;18.784;2024-03-08T10:01:05;1006.94;;;8.21;79.59
48810;BME280;40070;47.322;18.784;2024-03-08T10:03:08;1006.95;;;8.25;79.28
48810;BME280;40070;47.322;18.784;2024-03-08T10:05:11;1006.93;;;8.35;79.38
48810;BME280;40070;47.322;18.784;2024-03-08T10:07:14;1006.97;;;8.33;79.17
48810;BME280;40070;47.322;18.784;2024-03-08T10:09:16;1006.93;;;8.38;78.59
48810;BME280;40070;47.322;18.784;2024-03-08T10:11:19;1007.00;;;8.39;78.98
48810;BME280;40070;47.322;18.784;2024-03-08T10:13:22;1006.96;;;8.31;78.93
48810;BME280;40070;47.322;18.784;2024-03-08T10:15:26;1007.01;;;8.01;80.53
48810;BME280;40070;47.322;18.784;2024-03-08T10:17:29;1007.00;;;8.18;79.87
48810;BME280;40070;47.322;18.784;2024-03-08T10:19:31;1006.94;;;8.35;79.48
48810;BME280;40070;47.322;18.784;2024-03-08T10:21:34;1006.96;;;8.43;78.66
48810;BME280;40070;47.322;18.784;2024-03-08T10:23:37;1006.96;;;8.39;79.02
48810;BME280;40070;47.322;18.784;2024-03-08T10:25:39;1007.00;;;8.30;79.80
48810;BME280;40070;47.322;18.784;2024-03-08T10:27:42;1006.98;;;8.61;78.98
48810;BME280;40070;47.322;18.784;2024-03-08T10:29:47;1006.94;;;8.61;78.39
48810;BME280;40070;47.322;18.784;2024-03-08T10:31:50;1006.95;;;8.59;78.49
48810;BME280;40070;47.322;18.784;2024-03-08T10:33:52;1006.95;;;8.57;78.30
48810;BME280;40070;47.322;18.784;2024-03-08T10:35:55;1006.89;;;8.63;78.33
48810;BME280;40070;47.322;18.784;2024-03-08T10:37:57;1006.91;;;8.68;78.01
48810;BME280;40070;47.322;18.784;2024-03-08T10:40:03;1006.87;;;8.55;78.20
48810;BME280;40070;47.322;18.784;2024-03-08T10:42:06;1006.85;;;8.71;78.14
48810;BME280;40070;47.322;18.784;2024-03-08T10:46:51;1006.86;;;8.90;77.83
48810;BME280;40070;47.322;18.784;2024-03-08T10:48:52;1006.81;;;8.72;77.63
48810;BME280;40070;47.322;18.784;2024-03-08T10:51:01;1006.80;;;8.83;77.13
48810;BME280;40070;47.322;18.784;2024-03-08T10:53:05;1006.78;;;8.64;77.85
48810;BME280;40070;47.322;18.784;2024-03-08T10:55:08;1006.78;;;8.64;78.23
48810;BME280;40070;47.322;18.784;2024-03-08T10:57:12;1006.78;;;8.68;77.77
48810;BME280;40070;47.322;18.784;2024-03-08T10:59:15;1006.73;;;8.69;77.96